sensor_id;sensor_type;location;lat;lon;timestamp;pressure;altitude;pressure_sealevel;temperature;humidity
19576;BME280;41589;51.196;7.074;2023-03-01T00:02:28;100238.25;;;2.81;46.05
19576;BME280;41589;51.196;7.074;2023-03-01T00:07:29;100234.22;;;2.78;46.39
19576;BME280;41589;51.196;7.074;2023-03-01T00:12:31;100241.81;;;2.81;46.17
19576;BME280;41589;51.196;7.074;2023-03-01T00:17:31;100241.03;;;2.84;46.24
19576;BME280;41589;51.196;7.074;2023-03-01T00:22:35;100229.50;;;2.82;46.15
19576;BME280;41589;51.196;7.074;2023-03-01T00:27:35;100226.75;;;2.86;46.32
19576;BME280;41589;51.196;7.074;2023-03-01T00:32:36;100225.94;;;2.82;46.15
19576;BME280;41589;51.196;7.074;2023-03-01T00:37:36;100221.13;;;2.79;46.20
19576;BME280;41589;51.196;7.074;2023-03-01T00:42:37;100208.75;;;2.69;46.52
19576;BME280;41589;51.196;7.074;2023-03-01T00:47:41;100208.75;;;2.73;46.51
19576;BME280;41589;51.196;7.074;2023-03-01T00:52:41;100204.47;;;2.82;46.33
19576;BME280;41589;51.196;7.074;2023-03-01T00:57:42;100200.06;;;2.78;46.71
19576;BME280;41589;51.196;7.074;2023-03-01T01:02:42;100204.34;;;2.68;46.66
19576;BME280;41589;51.196;7.074;2023-03-01T01:07:43;100197.16;;;2.63;46.73
19576;BME280;41589;51.196;7.074;2023-03-01T01:12:44;100206.22;;;2.57;46.63
19576;BME280;41589;51.196;7.074;2023-03-01T01:17:45;100191.09;;;2.51;46.96
19576;BME280;41589;51.196;7.074;2023-03-01T01:22:45;100188.31;;;2.54;46.64
19576;BME280;41589;51.196;7.074;2023-03-01T01:27:46;100183.34;;;2.71;46.46
19576;BME280;41589;51.196;7.074;2023-03-01T01:32:47;100166.97;;;2.66;46.38
19576;BME280;41589;51.196;7.074;2023-03-01T01:37:47;100156.16;;;2.53;46.88
19576;BME280;41589;51.196;7.074;2023-03-01T01:42:47;100152.56;;;2.49;47.14
19576;BME280;41589;51.196;7.074;2023-03-01T01:47:48;100158.34;;;2.30;46.38
19576;BME280;41589;51.196;7.074;2023-03-01T01:52:50;100133.63;;;2.21;46.91
19576;BME280;41589;51.196;7.074;2023-03-01T01:57:54;100144.16;;;2.05;47.12
19576;BME280;41589;51.196;7.074;2023-03-01T02:03:05;100134.28;;;2.08;47.35
19576;BME280;41589;51.196;7.074;2023-03-01T02:08:08;100133.44;;;2.03;47.37
19576;BME280;41589;51.196;7.074;2023-03-01T02:13:09;100140.47;;;1.94;47.72
19576;BME280;41589;51.196;7.074;2023-03-01T02:18:12;100125.06;;;2.00;47.71
19576;BME280;41589;51.196;7.074;2023-03-01T02:23:14;100132.94;;;1.94;47.59
19576;BME280;41589;51.196;7.074;2023-03-01T02:33:18;100124.41;;;2.14;47.26
19576;BME280;41589;51.196;7.074;2023-03-01T02:38:19;100136.31;;;2.14;47.34
19576;BME280;41589;51.196;7.074;2023-03-01T02:43:22;100132.31;;;2.08;47.43
19576;BME280;41589;51.196;7.074;2023-03-01T02:48:26;100131.50;;;2.08;47.79
19576;BME280;41589;51.196;7.074;2023-03-01T02:53:44;100122.06;;;2.16;47.20
19576;BME280;41589;51.196;7.074;2023-03-01T02:58:46;100112.22;;;2.25;47.12
19576;BME280;41589;51.196;7.074;2023-03-01T03:03:51;100114.09;;;2.14;47.51
19576;BME280;41589;51.196;7.074;2023-03-01T03:08:52;100104.66;;;1.85;47.13
19576;BME280;41589;51.196;7.074;2023-03-01T03:13:53;100105.13;;;1.87;47.52
19576;BME280;41589;51.196;7.074;2023-03-01T03:18:53;100101.78;;;1.74;47.56
19576;BME280;41589;51.196;7.074;2023-03-01T03:23:54;100097.41;;;1.73;48.19
19576;BME280;41589;51.196;7.074;2023-03-01T03:28:55;100096.31;;;1.82;47.82
19576;BME280;41589;51.196;7.074;2023-03-01T03:33:56;100091.19;;;1.84;47.71
19576;BME280;41589;51.196;7.074;2023-03-01T03:38:56;100096.56;;;1.66;47.56
19576;BME280;41589;51.196;7.074;2023-03-01T03:43:57;100091.09;;;1.43;48.44
19576;BME280;41589;51.196;7.074;2023-03-01T03:48:57;100093.81;;;1.36;48.79
19576;BME280;41589;51.196;7.074;2023-03-01T03:53:58;100088.50;;;1.24;49.16
19576;BME280;41589;51.196;7.074;2023-03-01T03:58:58;100080.22;;;1.27;49.27
19576;BME280;41589;51.196;7.074;2023-03-01T04:03:58;100079.38;;;1.23;49.32
19576;BME280;41589;51.196;7.074;2023-03-01T04:09:04;100066.25;;;1.20;48.96
19576;BME280;41589;51.196;7.074;2023-03-01T04:14:04;100062.50;;;1.05;49.70
19576;BME280;41589;51.196;7.074;2023-03-01T04:19:04;100070.41;;;1.03;49.72
19576;BME280;41589;51.196;7.074;2023-03-01T04:24:06;100078.22;;;0.98;50.30
19576;BME280;41589;51.196;7.074;2023-03-01T04:29:07;100081.13;;;1.05;50.09
19576;BME280;41589;51.196;7.074;2023-03-01T04:34:07;100070.41;;;1.03;49.83
19576;BME280;41589;51.196;7.074;2023-03-01T04:39:07;100074.63;;;0.94;50.13
19576;BME280;41589;51.196;7.074;2023-03-01T04:44:12;100067.78;;;0.87;50.17
19576;BME280;41589;51.196;7.074;2023-03-01T04:49:13;100059.59;;;0.95;50.32
19576;BME280;41589;51.196;7.074;2023-03-01T04:54:13;100050.88;;;0.96;50.65
19576;BME280;41589;51.196;7.074;2023-03-01T04:59:13;100055.50;;;0.85;50.73
19576;BME280;41589;51.196;7.074;2023-03-01T05:04:14;100055.44;;;0.81;51.17
19576;BME280;41589;51.196;7.074;2023-03-01T05:09:14;100059.03;;;0.82;50.57
19576;BME280;41589;51.196;7.074;2023-03-01T05:14:14;100061.06;;;0.88;50.69
19576;BME280;41589;51.196;7.074;2023-03-01T05:19:15;100052.22;;;0.79;50.33
19576;BME280;41589;51.196;7.074;2023-03-01T05:24:15;100055.00;;;0.79;50.84
19576;BME280;41589;51.196;7.074;2023-03-01T05:29:15;100058.56;;;0.80;51.30
19576;BME280;41589;51.196;7.074;2023-03-01T05:34:17;100053.91;;;0.84;50.96
19576;BME280;41589;51.196;7.074;2023-03-01T05:39:17;100048.72;;;0.82;51.27
19576;BME280;41589;51.196;7.074;2023-03-01T05:44:17;100036.59;;;0.94;50.47
19576;BME280;41589;51.196;7.074;2023-03-01T05:49:18;100035.53;;;1.02;50.79
19576;BME280;41589;51.196;7.074;2023-03-01T05:54:20;100026.69;;;0.93;50.80
19576;BME280;41589;51.196;7.074;2023-03-01T05:59:21;100033.59;;;1.06;50.39
19576;BME280;41589;51.196;7.074;2023-03-01T06:04:22;100032.38;;;1.04;50.05
19576;BME280;41589;51.196;7.074;2023-03-01T06:09:22;100040.47;;;1.16;50.30
19576;BME280;41589;51.196;7.074;2023-03-01T06:14:23;100032.44;;;1.11;49.73
19576;BME280;41589;51.196;7.074;2023-03-01T06:19:23;100041.94;;;1.10;49.76
19576;BME280;41589;51.196;7.074;2023-03-01T06:24:24;100037.34;;;1.21;50.07
19576;BME280;41589;51.196;7.074;2023-03-01T06:29:24;100036.09;;;1.15;49.56
19576;BME280;41589;51.196;7.074;2023-03-01T06:34:24;100042.72;;;1.07;50.58
19576;BME280;41589;51.196;7.074;2023-03-01T06:39:27;100041.34;;;1.24;49.83
19576;BME280;41589;51.196;7.074;2023-03-01T06:44:28;100025.25;;;1.36;49.64
19576;BME280;41589;51.196;7.074;2023-03-01T06:49:28;100031.31;;;1.45;50.09
19576;BME280;41589;51.196;7.074;2023-03-01T06:54:29;100037.34;;;1.55;49.80
19576;BME280;41589;51.196;7.074;2023-03-01T06:59:29;100024.03;;;1.71;49.77
19576;BME280;41589;51.196;7.074;2023-03-01T07:04:30;100021.66;;;1.73;49.48
19576;BME280;41589;51.196;7.074;2023-03-01T07:09:30;100023.75;;;1.83;49.40
19576;BME280;41589;51.196;7.074;2023-03-01T07:14:31;100007.56;;;1.92;49.57
19576;BME280;41589;51.196;7.074;2023-03-01T07:19:32;100010.03;;;2.01;48.94
19576;BME280;41589;51.196;7.074;2023-03-01T07:24:33;100013.94;;;2.44;49.43
19576;BME280;41589;51.196;7.074;2023-03-01T07:29:33;100014.91;;;2.70;48.93
19576;BME280;41589;51.196;7.074;2023-03-01T07:34:36;100008.75;;;3.08;48.77
19576;BME280;41589;51.196;7.074;2023-03-01T07:39:36;100016.00;;;3.34;48.17
19576;BME280;41589;51.196;7.074;2023-03-01T07:44:37;100002.56;;;3.61;47.41
19576;BME280;41589;51.196;7.074;2023-03-01T07:49:37;100006.19;;;3.87;47.06
19576;BME280;41589;51.196;7.074;2023-03-01T07:54:38;100012.56;;;3.84;46.24
19576;BME280;41589;51.196;7.074;2023-03-01T07:59:38;100021.72;;;3.88;45.94
19576;BME280;41589;51.196;7.074;2023-03-01T08:04:39;100009.03;;;4.08;45.46
19576;BME280;41589;51.196;7.074;2023-03-01T08:09:39;100014.59;;;4.22;45.00
19576;BME280;41589;51.196;7.074;2023-03-01T08:14:40;100013.81;;;4.40;45.40
19576;BME280;41589;51.196;7.074;2023-03-01T08:19:42;100007.41;;;4.57;45.26
19576;BME280;41589;51.196;7.074;2023-03-01T08:24:46;100000.16;;;4.84;45.04
19576;BME280;41589;51.196;7.074;2023-03-01T08:29:46;100004.13;;;4.87;44.43
19576;BME280;41589;51.196;7.074;2023-03-01T08:34:47;100005.31;;;4.97;44.52
19576;BME280;41589;51.196;7.074;2023-03-01T08:39:48;99998.00;;;5.31;43.46
19576;BME280;41589;51.196;7.074;2023-03-01T08:44:48;99994.72;;;5.47;43.25
19576;BME280;41589;51.196;7.074;2023-03-01T08:49:50;99995.97;;;5.39;42.36
19576;BME280;41589;51.196;7.074;2023-03-01T08:54:50;100001.50;;;5.46;42.43
19576;BME280;41589;51.196;7.074;2023-03-01T08:59:51;99998.81;;;5.32;41.53
19576;BME280;41589;51.196;7.074;2023-03-01T09:04:51;99999.72;;;4.97;41.95
19576;BME280;41589;51.196;7.074;2023-03-01T09:09:52;99984.06;;;5.31;41.46
19576;BME280;41589;51.196;7.074;2023-03-01T09:14:54;99991.69;;;5.20;40.93
19576;BME280;41589;51.196;7.074;2023-03-01T09:19:54;99985.63;;;5.32;41.18
19576;BME280;41589;51.196;7.074;2023-03-01T09:24:54;99976.78;;;5.44;41.13
19576;BME280;41589;51.196;7.074;2023-03-01T09:29:56;99965.75;;;5.23;40.98
19576;BME280;41589;51.196;7.074;2023-03-01T09:34:57;99959.53;;;5.64;41.58
19576;BME280;41589;51.196;7.074;2023-03-01T09:40:08;99957.06;;;5.73;40.73
19576;BME280;41589;51.196;7.074;2023-03-01T09:45:20;99944.81;;;5.56;40.72
19576;BME280;41589;51.196;7.074;2023-03-01T09:50:26;99947.34;;;5.29;40.95
19576;BME280;41589;51.196;7.074;2023-03-01T09:55:34;99947.81;;;5.79;41.01
19576;BME280;41589;51.196;7.074;2023-03-01T10:00:48;99946.16;;;5.89;39.98
19576;BME280;41589;51.196;7.074;2023-03-01T10:05:59;99945.53;;;6.60;40.42
19576;BME280;41589;51.196;7.074;2023-03-01T10:11:03;99938.72;;;6.61;38.40
19576;BME280;41589;51.196;7.074;2023-03-01T12:06:33;99820.81;;;8.14;37.37
19576;BME280;41589;51.196;7.074;2023-03-01T12:33:31;99801.16;;;7.24;36.90
19576;BME280;41589;51.196;7.074;2023-03-01T12:38:42;99788.38;;;7.46;37.55
19576;BME280;41589;51.196;7.074;2023-03-01T12:44:08;99792.47;;;7.42;37.24
19576;BME280;41589;51.196;7.074;2023-03-01T12:49:18;99777.72;;;7.38;37.49
19576;BME280;41589;51.196;7.074;2023-03-01T12:54:29;99779.25;;;7.66;37.07
19576;BME280;41589;51.196;7.074;2023-03-01T13:10:40;99765.44;;;7.32;37.46
19576;BME280;41589;51.196;7.074;2023-03-01T13:15:43;99779.03;;;7.06;37.61
19576;BME280;41589;51.196;7.074;2023-03-01T13:26:04;99778.66;;;7.04;38.20
19576;BME280;41589;51.196;7.074;2023-03-01T13:31:07;99774.16;;;6.83;38.29
19576;BME280;41589;51.196;7.074;2023-03-01T13:36:09;99762.75;;;6.71;38.94
19576;BME280;41589;51.196;7.074;2023-03-01T13:41:12;99755.75;;;6.86;38.74
19576;BME280;41589;51.196;7.074;2023-03-01T13:46:21;99760.94;;;6.87;39.04
19576;BME280;41589;51.196;7.074;2023-03-01T13:51:25;99749.41;;;6.82;38.88
19576;BME280;41589;51.196;7.074;2023-03-01T13:56:36;99753.63;;;6.66;39.04
19576;BME280;41589;51.196;7.074;2023-03-01T14:01:37;99734.09;;;6.90;38.97
19576;BME280;41589;51.196;7.074;2023-03-01T14:06:37;99734.47;;;6.92;39.08
19576;BME280;41589;51.196;7.074;2023-03-01T14:22:24;99728.66;;;7.30;38.07
19576;BME280;41589;51.196;7.074;2023-03-01T14:27:38;99715.69;;;7.16;38.16
19576;BME280;41589;51.196;7.074;2023-03-01T14:33:02;99710.56;;;7.11;38.42
19576;BME280;41589;51.196;7.074;2023-03-01T14:38:03;99686.78;;;7.22;38.62
19576;BME280;41589;51.196;7.074;2023-03-01T14:43:10;99682.41;;;7.21;38.43
19576;BME280;41589;51.196;7.074;2023-03-01T14:48:11;99679.28;;;7.39;37.90
19576;BME280;41589;51.196;7.074;2023-03-01T14:53:21;99667.16;;;7.66;37.41
19576;BME280;41589;51.196;7.074;2023-03-01T14:58:25;99663.16;;;7.67;36.53
19576;BME280;41589;51.196;7.074;2023-03-01T15:03:38;99668.38;;;7.45;36.39
19576;BME280;41589;51.196;7.074;2023-03-01T15:08:44;99660.28;;;7.90;36.66
19576;BME280;41589;51.196;7.074;2023-03-01T15:13:46;99663.22;;;8.03;35.36
19576;BME280;41589;51.196;7.074;2023-03-01T15:18:49;99661.06;;;7.51;35.85
19576;BME280;41589;51.196;7.074;2023-03-01T15:23:53;99654.81;;;7.63;35.65
19576;BME280;41589;51.196;7.074;2023-03-01T15:28:56;99640.28;;;7.68;35.53
19576;BME280;41589;51.196;7.074;2023-03-01T15:34:21;99646.34;;;7.87;35.17
19576;BME280;41589;51.196;7.074;2023-03-01T15:39:55;99646.84;;;7.18;36.06
19576;BME280;41589;51.196;7.074;2023-03-01T15:45:24;99646.16;;;7.34;36.69
19576;BME280;41589;51.196;7.074;2023-03-01T15:50:29;99647.13;;;7.24;36.01
19576;BME280;41589;51.196;7.074;2023-03-01T15:55:31;99645.50;;;7.03;36.49
19576;BME280;41589;51.196;7.074;2023-03-01T16:00:33;99624.38;;;6.75;36.51
19576;BME280;41589;51.196;7.074;2023-03-01T16:05:34;99630.47;;;6.70;37.03
19576;BME280;41589;51.196;7.074;2023-03-01T16:10:40;99634.06;;;6.71;37.20
19576;BME280;41589;51.196;7.074;2023-03-01T16:15:43;99629.63;;;6.73;37.24
19576;BME280;41589;51.196;7.074;2023-03-01T16:20:44;99623.56;;;6.78;36.81
19576;BME280;41589;51.196;7.074;2023-03-01T16:25:44;99634.88;;;6.44;37.57
19576;BME280;41589;51.196;7.074;2023-03-01T16:30:47;99634.91;;;6.41;37.84
19576;BME280;41589;51.196;7.074;2023-03-01T16:35:50;99632.50;;;6.43;37.57
19576;BME280;41589;51.196;7.074;2023-03-01T16:40:51;99639.13;;;6.25;37.76
19576;BME280;41589;51.196;7.074;2023-03-01T16:45:52;99639.00;;;6.36;37.87
19576;BME280;41589;51.196;7.074;2023-03-01T16:50:59;99636.25;;;6.59;37.33
19576;BME280;41589;51.196;7.074;2023-03-01T16:56:00;99624.84;;;6.47;37.78
19576;BME280;41589;51.196;7.074;2023-03-01T17:01:12;99636.84;;;6.17;37.42
19576;BME280;41589;51.196;7.074;2023-03-01T17:06:17;99640.00;;;6.19;37.51
19576;BME280;41589;51.196;7.074;2023-03-01T17:11:19;99645.69;;;6.11;37.63
19576;BME280;41589;51.196;7.074;2023-03-01T17:16:20;99642.94;;;6.08;37.86
19576;BME280;41589;51.196;7.074;2023-03-01T17:21:21;99645.28;;;5.82;37.95
19576;BME280;41589;51.196;7.074;2023-03-01T17:26:21;99634.75;;;5.94;38.10
19576;BME280;41589;51.196;7.074;2023-03-01T17:31:22;99634.25;;;5.68;38.55
19576;BME280;41589;51.196;7.074;2023-03-01T17:36:23;99648.16;;;5.75;38.13
19576;BME280;41589;51.196;7.074;2023-03-01T17:41:23;99648.28;;;5.65;38.51
19576;BME280;41589;51.196;7.074;2023-03-01T17:46:24;99645.53;;;5.61;38.35
19576;BME280;41589;51.196;7.074;2023-03-01T17:51:26;99669.59;;;5.51;38.69
19576;BME280;41589;51.196;7.074;2023-03-01T17:56:26;99653.69;;;5.79;38.17
19576;BME280;41589;51.196;7.074;2023-03-01T18:01:27;99665.94;;;5.55;38.63
19576;BME280;41589;51.196;7.074;2023-03-01T18:06:28;99662.44;;;5.81;38.41
19576;BME280;41589;51.196;7.074;2023-03-01T18:11:28;99662.91;;;5.76;38.55
19576;BME280;41589;51.196;7.074;2023-03-01T18:16:29;99668.63;;;5.65;38.50
19576;BME280;41589;51.196;7.074;2023-03-01T18:21:30;99662.69;;;5.60;38.79
19576;BME280;41589;51.196;7.074;2023-03-01T18:26:31;99655.63;;;5.51;38.83
19576;BME280;41589;51.196;7.074;2023-03-01T18:31:31;99653.44;;;5.32;39.39
19576;BME280;41589;51.196;7.074;2023-03-01T18:36:34;99648.47;;;5.47;38.83
19576;BME280;41589;51.196;7.074;2023-03-01T18:41:35;99649.13;;;5.58;38.97
19576;BME280;41589;51.196;7.074;2023-03-01T18:46:36;99635.78;;;5.42;39.25
19576;BME280;41589;51.196;7.074;2023-03-01T18:51:39;99637.25;;;5.13;39.67
19576;BME280;41589;51.196;7.074;2023-03-01T18:56:39;99628.53;;;5.11;40.04
19576;BME280;41589;51.196;7.074;2023-03-01T19:01:40;99620.16;;;5.07;40.13
19576;BME280;41589;51.196;7.074;2023-03-01T19:06:40;99620.34;;;5.31;39.89
19576;BME280;41589;51.196;7.074;2023-03-01T19:11:40;99614.81;;;5.23;39.79
19576;BME280;41589;51.196;7.074;2023-03-01T19:16:41;99611.41;;;5.09;40.08
19576;BME280;41589;51.196;7.074;2023-03-01T19:21:41;99607.78;;;5.12;40.34
19576;BME280;41589;51.196;7.074;2023-03-01T19:26:42;99608.88;;;5.21;40.10
19576;BME280;41589;51.196;7.074;2023-03-01T19:31:42;99614.34;;;5.32;39.99
19576;BME280;41589;51.196;7.074;2023-03-01T19:36:43;99604.16;;;5.15;40.23
19576;BME280;41589;51.196;7.074;2023-03-01T19:41:43;99614.72;;;4.93;40.73
19576;BME280;41589;51.196;7.074;2023-03-01T19:46:44;99608.97;;;5.11;40.39
19576;BME280;41589;51.196;7.074;2023-03-01T19:51:44;99603.47;;;5.04;40.62
19576;BME280;41589;51.196;7.074;2023-03-01T19:56:46;99607.41;;;5.10;40.40
19576;BME280;41589;51.196;7.074;2023-03-01T20:01:47;99612.94;;;5.13;40.77
19576;BME280;41589;51.196;7.074;2023-03-01T20:06:48;99602.72;;;5.00;40.67
19576;BME280;41589;51.196;7.074;2023-03-01T20:11:49;99603.19;;;4.91;40.91
19576;BME280;41589;51.196;7.074;2023-03-01T20:16:50;99606.25;;;5.04;40.95
19576;BME280;41589;51.196;7.074;2023-03-01T20:21:50;99601.19;;;4.91;40.88
19576;BME280;41589;51.196;7.074;2023-03-01T20:26:51;99599.16;;;4.95;40.91
19576;BME280;41589;51.196;7.074;2023-03-01T20:31:51;99594.84;;;4.87;41.23
19576;BME280;41589;51.196;7.074;2023-03-01T20:36:52;99598.91;;;4.79;41.26
19576;BME280;41589;51.196;7.074;2023-03-01T20:41:52;99600.88;;;4.82;41.17
19576;BME280;41589;51.196;7.074;2023-03-01T20:46:52;99599.34;;;4.74;41.57
19576;BME280;41589;51.196;7.074;2023-03-01T20:51:53;99583.09;;;4.65;41.81
19576;BME280;41589;51.196;7.074;2023-03-01T20:56:53;99587.59;;;4.52;42.11
19576;BME280;41589;51.196;7.074;2023-03-01T21:01:53;99594.81;;;4.46;42.52
19576;BME280;41589;51.196;7.074;2023-03-01T21:06:54;99592.91;;;4.32;42.66
19576;BME280;41589;51.196;7.074;2023-03-01T21:11:55;99593.16;;;3.93;44.12
19576;BME280;41589;51.196;7.074;2023-03-01T21:16:55;99593.56;;;3.95;43.91
19576;BME280;41589;51.196;7.074;2023-03-01T21:21:55;99590.38;;;3.97;44.71
19576;BME280;41589;51.196;7.074;2023-03-01T21:26:56;99594.25;;;4.10;44.37
19576;BME280;41589;51.196;7.074;2023-03-01T21:31:56;99593.56;;;3.95;44.70
19576;BME280;41589;51.196;7.074;2023-03-01T21:36:56;99591.28;;;3.62;45.51
19576;BME280;41589;51.196;7.074;2023-03-01T21:41:59;99589.22;;;3.80;45.64
19576;BME280;41589;51.196;7.074;2023-03-01T21:47:00;99596.03;;;3.75;45.47
19576;BME280;41589;51.196;7.074;2023-03-01T21:52:00;99584.13;;;3.68;45.60
19576;BME280;41589;51.196;7.074;2023-03-01T21:57:00;99591.28;;;3.69;45.73
19576;BME280;41589;51.196;7.074;2023-03-01T22:02:01;99572.22;;;3.64;46.41
19576;BME280;41589;51.196;7.074;2023-03-01T22:07:01;99571.41;;;3.67;46.04
19576;BME280;41589;51.196;7.074;2023-03-01T22:12:03;99560.66;;;3.65;45.88
19576;BME280;41589;51.196;7.074;2023-03-01T22:17:03;99575.44;;;3.55;46.29
19576;BME280;41589;51.196;7.074;2023-03-01T22:22:04;99583.38;;;3.57;46.76
19576;BME280;41589;51.196;7.074;2023-03-01T22:27:04;99574.25;;;3.53;46.38
19576;BME280;41589;51.196;7.074;2023-03-01T22:32:04;99572.25;;;3.49;46.10
19576;BME280;41589;51.196;7.074;2023-03-01T22:37:05;99580.22;;;3.55;46.00
19576;BME280;41589;51.196;7.074;2023-03-01T22:42:05;99577.88;;;3.42;46.34
19576;BME280;41589;51.196;7.074;2023-03-01T22:47:06;99582.59;;;3.56;46.45
19576;BME280;41589;51.196;7.074;2023-03-01T22:52:06;99580.16;;;3.65;45.92
19576;BME280;41589;51.196;7.074;2023-03-01T22:57:07;99576.59;;;3.58;46.37
19576;BME280;41589;51.196;7.074;2023-03-01T23:02:08;99571.78;;;3.69;46.01
19576;BME280;41589;51.196;7.074;2023-03-01T23:07:08;99566.69;;;3.57;45.85
19576;BME280;41589;51.196;7.074;2023-03-01T23:12:08;99561.56;;;3.44;45.99
19576;BME280;41589;51.196;7.074;2023-03-01T23:17:10;99567.50;;;3.46;45.88
19576;BME280;41589;51.196;7.074;2023-03-01T23:22:11;99581.81;;;3.48;45.71
19576;BME280;41589;51.196;7.074;2023-03-01T23:27:12;99573.91;;;3.43;45.83
19576;BME280;41589;51.196;7.074;2023-03-01T23:32:14;99570.69;;;3.41;45.98
19576;BME280;41589;51.196;7.074;2023-03-01T23:37:15;99570.72;;;3.45;46.32
19576;BME280;41589;51.196;7.074;2023-03-01T23:42:15;99573.09;;;3.43;46.16
19576;BME280;41589;51.196;7.074;2023-03-01T23:47:15;99571.53;;;3.42;46.48
19576;BME280;41589;51.196;7.074;2023-03-01T23:52:16;99581.84;;;3.38;45.99
19576;BME280;41589;51.196;7.074;2023-03-01T23:57:17;99574.34;;;3.28;46.31
